Time;durP1;ratioP1;P1;durP2;ratioP2;P2;SDS_P1;SDS_P2;PMS_P1;PMS_P2;Temp;Humidity;BMP_temperature;BMP_pressure;BME280_temperature;BME280_humidity;BME280_pressure;Samples;Min_cycle;Max_cycle;Signal;HPM_P1;HPM_P2
2022/09/28 00:01:45;;;;;;;11.90;8.50;;;;;;;7.15;98.60;99505.09;5023238;28;20427;-74
2022/09/28 00:04:11;;;;;;;14.43;9.23;;;;;;;7.20;98.32;99507.44;5031781;28;20401;-75
2022/09/28 00:06:37;;;;;;;16.95;8.23;;;;;;;7.22;98.74;99518.13;5029228;28;20033;-75
2022/09/28 00:09:03;;;;;;;14.05;8.55;;;;;;;7.24;98.85;99514.31;5027713;28;20025;-75
2022/09/28 00:11:29;;;;;;;16.88;9.15;;;;;;;7.25;98.56;99515.19;5027877;28;20030;-75
2022/09/28 00:13:57;;;;;;;15.00;9.35;;;;;;;7.27;98.38;99505.94;5020590;28;20069;-75
2022/09/28 00:16:28;;;;;;;15.02;9.25;;;;;;;7.28;98.50;99505.00;5008384;28;20021;-75
2022/09/28 00:18:54;;;;;;;17.40;9.65;;;;;;;7.29;98.48;99500.44;5010851;28;20041;-75
2022/09/28 00:21:31;;;;;;;13.45;9.35;;;;;;;7.29;98.71;99501.28;5024455;28;20487;-74
2022/09/28 00:24:11;;;;;;;12.13;9.40;;;;;;;7.29;98.26;99498.59;5023538;28;20061;-75
2022/09/28 00:26:42;;;;;;;14.55;9.02;;;;;;;7.28;98.63;99494.16;5028343;28;20069;-75
2022/09/28 00:29:15;;;;;;;17.35;8.93;;;;;;;7.27;98.40;99492.41;5006725;28;20038;-75
2022/09/28 00:31:41;;;;;;;13.07;8.93;;;;;;;7.29;98.69;99492.31;5023157;28;20038;-75
2022/09/28 00:34:06;;;;;;;10.75;8.68;;;;;;;7.28;98.35;99487.91;5025464;28;20102;-75
2022/09/28 00:36:32;;;;;;;13.18;8.30;;;;;;;7.27;97.97;99488.84;5045007;28;20108;-74
2022/09/28 00:39:01;;;;;;;15.05;9.07;;;;;;;7.25;98.44;99480.88;5039994;28;20021;-74
2022/09/28 00:41:28;;;;;;;11.43;8.43;;;;;;;7.22;98.31;99477.56;5030312;28;20034;-74
2022/09/28 00:44:25;;;;;;;16.27;7.82;;;;;;;7.20;98.26;99479.53;5014179;28;20466;-74
2022/09/28 00:46:57;;;;;;;14.10;8.50;;;;;;;7.15;97.88;99474.50;5039953;28;20046;-74
2022/09/28 00:49:32;;;;;;;12.27;8.10;;;;;;;7.13;97.85;99473.75;5028564;28;20057;-74
2022/09/28 00:51:59;;;;;;;10.68;8.15;;;;;;;7.11;98.08;99471.16;5048269;28;20049;-75
2022/09/28 00:54:25;;;;;;;10.25;7.63;;;;;;;7.09;97.74;99461.47;5016768;28;20222;-75
2022/09/28 00:56:50;;;;;;;17.38;8.23;;;;;;;7.09;98.07;99470.44;5036252;28;20469;-74
2022/09/28 00:59:16;;;;;;;14.98;9.68;;;;;;;7.09;98.49;99465.03;5032079;28;20074;-74
2022/09/28 01:01:41;;;;;;;10.55;7.82;;;;;;;7.11;98.57;99465.75;5046618;28;20060;-75
2022/09/28 01:04:06;;;;;;;13.65;8.18;;;;;;;7.10;98.60;99466.75;5031123;28;20416;-74
2022/09/28 01:06:36;;;;;;;15.20;7.93;;;;;;;7.11;98.17;99463.06;5030988;28;20080;-74
2022/09/28 01:09:05;;;;;;;10.77;7.28;;;;;;;7.14;98.17;99462.81;5019915;28;20045;-75
2022/09/28 01:11:32;;;;;;;11.82;8.35;;;;;;;7.14;98.08;99462.81;5013091;28;20053;-75
2022/09/28 01:13:59;;;;;;;11.40;8.75;;;;;;;7.18;98.43;99470.66;5043434;28;20045;-74
2022/09/28 01:16:40;;;;;;;9.18;7.70;;;;;;;7.16;98.69;99466.25;5022378;28;20319;-74
2022/09/28 01:19:50;;;;;;;15.93;9.18;;;;;;;7.18;98.33;99466.16;5046946;28;20091;-75
2022/09/28 01:23:01;;;;;;;15.82;8.77;;;;;;;7.16;98.49;99473.50;5030043;28;20391;-74
2022/09/28 01:25:42;;;;;;;12.40;7.93;;;;;;;7.13;97.99;99471.03;5022372;28;20112;-74
2022/09/28 01:28:14;;;;;;;11.48;8.43;;;;;;;7.12;98.25;99477.44;5031895;28;20489;-74
2022/09/28 01:30:48;;;;;;;12.93;9.95;;;;;;;7.07;98.87;99475.09;5031589;28;20062;-75
2022/09/28 01:33:28;;;;;;;13.60;9.45;;;;;;;7.04;98.88;99478.06;5046543;28;20067;-74
2022/09/28 01:36:04;;;;;;;14.63;9.73;;;;;;;7.04;98.68;99478.06;5032040;28;20091;-74
2022/09/28 01:38:36;;;;;;;13.95;9.30;;;;;;;7.03;98.97;99476.31;5040221;28;20025;-74
2022/09/28 01:41:03;;;;;;;17.40;10.77;;;;;;;7.04;98.94;99471.78;5018544;28;20049;-74
2022/09/28 01:43:33;;;;;;;16.75;11.02;;;;;;;7.05;99.21;99481.63;5011481;28;20053;-74
2022/09/28 01:46:00;;;;;;;13.98;10.07;;;;;;;7.06;99.34;99481.50;5035666;28;20120;-74
2022/09/28 01:48:38;;;;;;;15.32;11.60;;;;;;;7.07;99.47;99480.50;5017741;28;20477;-74
2022/09/28 01:51:12;;;;;;;16.58;10.50;;;;;;;7.08;99.48;99481.38;5029707;28;20044;-74
2022/09/28 01:53:40;;;;;;;19.60;11.10;;;;;;;7.12;99.53;99490.94;5033101;28;20064;-74
2022/09/28 01:56:16;;;;;;;18.10;11.68;;;;;;;7.13;99.28;99482.75;5029527;28;20392;-74
2022/09/28 01:58:50;;;;;;;18.00;12.00;;;;;;;7.15;99.31;99488.88;5030877;28;20410;-75
2022/09/28 02:01:36;;;;;;;16.73;11.80;;;;;;;7.18;99.75;99481.47;5035790;28;20167;-74
2022/09/28 02:04:13;;;;;;;18.35;10.77;;;;;;;7.18;99.70;99479.66;5007770;28;20497;-75
2022/09/28 02:07:07;;;;;;;18.70;11.38;;;;;;;7.22;99.46;99470.28;5016720;28;20041;-75
2022/09/28 02:09:43;;;;;;;19.08;12.05;;;;;;;7.23;99.68;99472.03;5046025;28;20037;-75
2022/09/28 02:12:18;;;;;;;16.45;11.23;;;;;;;7.23;99.53;99472.03;5046396;28;20067;-75
2022/09/28 02:14:47;;;;;;;24.77;13.48;;;;;;;7.25;99.74;99469.19;5031340;28;20030;-75
2022/09/28 02:17:15;;;;;;;17.85;12.43;;;;;;;7.26;99.87;99468.22;5024704;28;20037;-75
2022/09/28 02:19:41;;;;;;;19.92;12.63;;;;;;;7.25;99.38;99475.47;5029121;28;20110;-75
2022/09/28 02:22:32;;;;;;;18.17;12.20;;;;;;;7.27;99.47;99469.91;5029195;28;20025;-75
2022/09/28 02:25:06;;;;;;;18.95;11.75;;;;;;;7.24;99.03;99471.06;5016578;28;20030;-75
2022/09/28 02:27:53;;;;;;;18.67;11.52;;;;;;;7.19;98.89;99473.28;5010924;28;20466;-75
2022/09/28 02:30:18;;;;;;;19.45;10.73;;;;;;;7.15;98.44;99478.06;5010827;28;20045;-74
2022/09/28 02:32:48;;;;;;;14.23;10.75;;;;;;;7.08;98.57;99471.41;5028306;28;20072;-75
2022/09/28 02:35:17;;;;;;;16.52;10.40;;;;;;;7.07;98.41;99471.53;5013468;28;20045;-75
2022/09/28 02:37:43;;;;;;;12.35;9.20;;;;;;;7.04;98.66;99469.06;5029722;28;20041;-75
2022/09/28 02:40:27;;;;;;;14.63;9.57;;;;;;;7.02;98.37;99466.50;5016048;28;20081;-75
2022/09/28 02:43:08;;;;;;;13.70;9.65;;;;;;;7.04;98.47;99474.47;5030538;28;20037;-75
2022/09/28 02:46:05;;;;;;;13.82;9.20;;;;;;;7.01;98.26;99469.34;5024463;28;20167;-75
2022/09/28 02:49:07;;;;;;;17.55;9.23;;;;;;;7.02;98.38;99471.03;5014531;28;20029;-75
2022/09/28 02:52:03;;;;;;;14.15;9.18;;;;;;;6.98;98.47;99474.97;5029391;28;20048;-75
2022/09/28 02:55:05;;;;;;;13.18;8.27;;;;;;;6.95;98.68;99475.22;5029325;28;20092;-74
2022/09/28 02:57:44;;;;;;;11.80;8.70;;;;;;;6.93;98.94;99486.16;5028800;28;20033;-75
2022/09/28 03:00:16;;;;;;;17.88;8.20;;;;;;;6.93;99.04;99479.88;5031498;28;20034;-75
2022/09/28 03:02:44;;;;;;;11.93;8.03;;;;;;;6.94;98.77;99485.16;5027592;28;20500;-74
2022/09/28 03:05:16;;;;;;;11.95;7.32;;;;;;;6.96;98.75;99475.09;5029270;28;20049;-75
2022/09/28 03:07:54;;;;;;;14.77;8.10;;;;;;;6.95;99.19;99486.03;5029416;28;20124;-75
2022/09/28 03:10:37;;;;;;;10.70;7.25;;;;;;;6.97;98.96;99475.97;5029194;28;20072;-74
2022/09/28 03:13:04;;;;;;;12.65;7.47;;;;;;;6.99;99.00;99479.38;5030279;28;20136;-75
2022/09/28 03:15:32;;;;;;;12.38;7.45;;;;;;;7.01;98.71;99480.16;5024774;28;20393;-75
2022/09/28 03:17:58;;;;;;;14.95;6.97;;;;;;;7.02;98.89;99479.16;5028088;28;20079;-75
2022/09/28 03:20:25;;;;;;;10.00;6.55;;;;;;;7.02;98.90;99481.88;5028781;28;20677;-75
2022/09/28 03:22:51;;;;;;;10.32;6.05;;;;;;;7.04;98.96;99479.88;5027601;28;20037;-74
2022/09/28 03:25:17;;;;;;;9.23;6.00;;;;;;;7.05;99.01;99481.63;5010292;28;20433;-74
2022/09/28 03:27:42;;;;;;;10.43;6.65;;;;;;;7.02;98.98;99480.00;5019981;28;20022;-75
2022/09/28 03:30:09;;;;;;;12.02;5.65;;;;;;;7.04;99.27;99486.19;5019904;28;20761;-75
2022/09/28 03:32:36;;;;;;;8.75;5.90;;;;;;;7.04;99.08;99483.47;5009704;28;20034;-75
2022/09/28 03:35:02;;;;;;;8.93;5.47;;;;;;;7.01;98.73;99475.59;5028175;28;20083;-75
2022/09/28 03:37:27;;;;;;;8.65;5.32;;;;;;;7.02;98.57;99479.16;5026752;28;20384;-75
2022/09/28 03:39:53;;;;;;;7.55;4.70;;;;;;;7.00;98.79;99479.28;5014056;28;20072;-75
2022/09/28 03:42:19;;;;;;;12.55;5.00;;;;;;;7.00;98.60;99483.84;5034214;28;20523;-74
2022/09/28 03:44:47;;;;;;;7.82;4.90;;;;;;;6.97;98.58;99495.75;5016809;28;20120;-75
2022/09/28 03:47:14;;;;;;;8.18;4.65;;;;;;;6.95;98.47;99484.22;5041190;28;20129;-75
2022/09/28 03:49:40;;;;;;;7.03;5.30;;;;;;;6.97;98.95;99484.94;5025210;28;20473;-76
2022/09/28 03:52:08;;;;;;;8.90;5.28;;;;;;;6.96;98.70;99490.47;5044797;28;20488;-75
2022/09/28 03:54:33;;;;;;;12.82;4.50;;;;;;;6.97;98.88;99492.19;5028430;28;20043;-75
2022/09/28 03:56:58;;;;;;;8.00;3.95;;;;;;;6.93;99.06;99486.16;5031039;28;20029;-75
2022/09/28 03:59:24;;;;;;;6.00;3.90;;;;;;;6.97;98.82;99497.59;5015929;28;20485;-75
2022/09/28 04:01:50;;;;;;;5.57;3.78;;;;;;;6.98;99.00;99500.16;5035167;28;20124;-74
2022/09/28 04:17:30;;;;;;;6.22;3.75;;;;;;;6.99;98.98;99484.78;5287346;23;20048;-87
2022/09/28 04:19:56;;;;;;;5.53;2.60;;;;;;;6.98;98.82;99486.66;4919785;29;20071;-87
2022/09/28 04:22:36;;;;;;;6.47;3.15;;;;;;;6.98;98.95;99491.19;4910643;29;20079;-87
2022/09/28 04:25:03;;;;;;;7.65;3.20;;;;;;;6.98;99.04;99491.19;4908313;29;20036;-87
2022/09/28 04:30:13;;;;;;;5.90;3.15;;;;;;;6.95;99.06;99476.09;4922359;29;20096;-87
2022/09/28 04:32:40;;;;;;;8.85;2.60;;;;;;;6.98;99.19;99474.97;4905500;29;20069;-87
2022/09/28 04:35:07;;;;;;;6.80;2.55;;;;;;;6.95;99.48;99464.38;4930680;29;20059;-86
2022/09/28 04:37:33;;;;;;;4.43;2.67;;;;;;;6.93;99.07;99469.06;4928811;29;20110;-87
2022/09/28 04:40:00;;;;;;;4.97;2.45;;;;;;;6.88;98.66;99464.88;4914436;29;20041;-87
2022/09/28 04:42:25;;;;;;;2.60;2.20;;;;;;;6.86;98.99;99468.72;4897043;29;20071;-87
2022/09/28 04:44:51;;;;;;;5.28;2.22;;;;;;;6.87;99.15;99479.41;4911194;29;20113;-87
2022/09/28 04:47:16;;;;;;;2.67;1.95;;;;;;;6.77;99.22;99475.69;4905626;29;20025;-88
2022/09/28 04:49:42;;;;;;;3.35;2.15;;;;;;;6.71;98.78;99470.75;4894641;29;20055;-88
2022/09/28 04:52:16;;;;;;;3.03;2.00;;;;;;;6.69;99.08;99478.13;4899209;29;20028;-87
2022/09/28 04:54:41;;;;;;;4.25;2.20;;;;;;;6.67;98.97;99487.34;4914633;29;20039;-87
2022/09/28 04:57:07;;;;;;;5.15;1.90;;;;;;;6.63;99.29;99489.44;4895521;29;20060;-87
2022/09/28 04:59:33;;;;;;;2.08;1.88;;;;;;;6.60;98.85;99492.38;4927813;29;20032;-87
2022/09/28 05:01:59;;;;;;;2.35;1.70;;;;;;;6.54;98.76;99488.31;4914645;29;20032;-87
2022/09/28 05:04:42;;;;;;;4.30;1.45;;;;;;;6.53;98.89;99497.41;4922335;29;20115;-87
2022/09/28 05:07:34;;;;;;;2.35;1.70;;;;;;;6.52;99.12;99495.66;4907695;29;20051;-87
2022/09/28 05:10:02;;;;;;;3.90;1.20;;;;;;;6.56;99.21;99507.09;4927971;29;20123;-87
2022/09/28 05:12:29;;;;;;;1.60;1.38;;;;;;;6.49;99.48;99498.63;4925294;29;20506;-87
2022/09/28 05:14:55;;;;;;;5.05;1.90;;;;;;;6.52;99.54;99498.34;4907644;29;20037;-86
2022/09/28 05:17:20;;;;;;;4.15;1.77;;;;;;;6.53;99.38;99493.84;4896999;29;20075;-87
2022/09/28 05:19:56;;;;;;;2.53;1.30;;;;;;;6.52;99.78;99495.66;4904157;29;20036;-87
2022/09/28 05:22:22;;;;;;;2.50;1.50;;;;;;;6.56;99.47;99505.25;4911869;29;20416;-86
2022/09/28 05:24:47;;;;;;;2.03;1.42;;;;;;;6.50;99.26;99492.22;4910985;29;20124;-87
2022/09/28 05:27:13;;;;;;;1.95;1.50;;;;;;;6.52;99.34;99498.34;4924717;29;20032;-87
2022/09/28 05:29:39;;;;;;;1.98;1.60;;;;;;;6.51;99.47;99501.19;4942849;29;20042;-87
2022/09/28 05:32:40;;;;;;;2.83;1.70;;;;;;;6.56;99.12;99510.66;4896236;29;20106;-86
2022/09/28 05:35:38;;;;;;;4.72;1.42;;;;;;;6.45;99.33;99498.97;4907068;29;20104;-86
2022/09/28 05:38:04;;;;;;;1.63;1.45;;;;;;;6.46;99.42;99497.97;4914489;29;20043;-87
2022/09/28 05:40:30;;;;;;;3.22;1.40;;;;;;;6.43;99.28;99501.75;4911234;29;20052;-86
2022/09/28 05:43:03;;;;;;;3.60;1.38;;;;;;;6.40;99.17;99496.63;4900626;29;20091;-86
2022/09/28 05:45:30;;;;;;;1.73;1.40;;;;;;;6.41;99.23;99501.03;4912643;29;20043;-86
2022/09/28 05:47:55;;;;;;;4.72;1.55;;;;;;;6.39;99.43;99503.00;4905531;29;20028;-87
2022/09/28 05:50:21;;;;;;;4.60;1.80;;;;;;;6.35;99.75;99496.97;4919935;29;20060;-88
2022/09/28 05:52:57;;;;;;;2.70;1.58;;;;;;;6.37;99.75;99508.50;4880764;29;20151;-89
2022/09/28 05:55:22;;;;;;;3.00;1.50;;;;;;;6.39;99.90;99506.56;4907473;29;20040;-89
2022/09/28 05:57:47;;;;;;;4.43;1.77;;;;;;;6.47;99.95;99502.41;4932796;29;20055;-88
2022/09/28 06:00:13;;;;;;;2.35;1.95;;;;;;;6.48;100.00;99520.31;4904127;29;20139;-89
2022/09/28 06:02:40;;;;;;;7.30;1.92;;;;;;;6.54;100.00;99515.31;4903055;29;20128;-88
2022/09/28 06:05:08;;;;;;;4.82;2.25;;;;;;;6.56;100.00;99517.91;4909250;29;20071;-89
2022/09/28 06:07:33;;;;;;;5.15;2.28;;;;;;;6.51;100.00;99507.44;4915424;29;20372;-89
2022/09/28 06:09:59;;;;;;;2.97;1.90;;;;;;;6.56;99.69;99516.06;4914147;29;20036;-88
2022/09/28 06:12:36;;;;;;;6.07;1.92;;;;;;;6.57;99.51;99519.63;4915767;29;20470;-88
2022/09/28 06:15:06;;;;;;;4.10;2.58;;;;;;;6.51;99.30;99520.97;4920485;29;20032;-88
2022/09/28 06:17:32;;;;;;;4.57;2.25;;;;;;;6.52;99.41;99532.63;4910425;29;20115;-88
2022/09/28 06:20:15;;;;;;;4.30;2.10;;;;;;;6.47;99.10;99524.88;4915445;29;20527;-89
2022/09/28 06:23:11;;;;;;;2.92;2.35;;;;;;;6.43;99.32;99525.22;4918736;29;20032;-88
2022/09/28 06:25:38;;;;;;;3.38;2.53;;;;;;;6.37;99.16;99518.44;4916781;29;20499;-89
2022/09/28 06:28:04;;;;;;;5.00;2.13;;;;;;;6.41;98.83;99528.06;4923295;29;20168;-88
2022/09/28 06:30:33;;;;;;;3.53;2.60;;;;;;;6.37;98.98;99524.72;4928656;29;20062;-88
2022/09/28 06:33:00;;;;;;;7.93;2.92;;;;;;;6.36;99.16;99533.81;4922433;29;20035;-88
2022/09/28 06:35:29;;;;;;;3.38;2.58;;;;;;;6.41;99.38;99541.56;4924690;29;20031;-88
2022/09/28 06:37:56;;;;;;;3.08;2.60;;;;;;;6.37;99.55;99532.81;4897588;29;20028;-88
2022/09/28 06:40:22;;;;;;;3.13;2.70;;;;;;;6.39;99.44;99530.88;4910222;29;20045;-88
2022/09/28 06:42:55;;;;;;;6.47;3.05;;;;;;;6.45;99.51;99544.91;4894487;29;20036;-89
2022/09/28 06:45:41;;;;;;;5.07;3.15;;;;;;;6.47;99.49;99545.63;4894504;29;20058;-88
2022/09/28 06:48:22;;;;;;;3.35;3.05;;;;;;;6.48;99.81;99540.13;4906390;29;20040;-89
2022/09/28 06:50:48;;;;;;;3.70;3.25;;;;;;;6.49;99.72;99536.44;4910105;29;20088;-89
2022/09/28 06:53:27;;;;;;;8.20;3.45;;;;;;;6.60;99.80;99558.06;4894291;29;20391;-88
2022/09/28 06:56:01;;;;;;;6.10;3.67;;;;;;;6.67;100.00;99553.09;4909830;29;20035;-89
2022/09/28 06:58:27;;;;;;;5.22;4.18;;;;;;;6.67;99.75;99555.78;4893530;29;20111;-89
2022/09/28 07:00:59;;;;;;;5.85;3.85;;;;;;;6.70;99.90;99557.38;4894400;29;20028;-88
2022/09/28 07:03:26;;;;;;;7.88;3.80;;;;;;;6.74;99.93;99558.88;4892466;29;20472;-89
2022/09/28 07:05:55;;;;;;;6.28;4.32;;;;;;;6.71;100.00;99556.38;4894369;29;20088;-89
2022/09/28 07:08:40;;;;;;;6.35;4.05;;;;;;;6.73;100.00;99559.84;4894528;29;20055;-88
2022/09/28 07:11:25;;;;;;;9.38;4.70;;;;;;;6.75;99.87;99566.84;4897261;29;20051;-89
2022/09/28 07:14:16;;;;;;;5.63;4.25;;;;;;;6.74;100.00;99558.88;4909437;29;20518;-89
2022/09/28 07:16:41;;;;;;;17.63;4.93;;;;;;;6.77;100.00;99561.34;4906849;29;20028;-88
2022/09/28 07:19:07;;;;;;;11.70;4.70;;;;;;;6.77;100.00;99562.19;4877901;29;20408;-88
2022/09/28 07:21:32;;;;;;;8.70;5.15;;;;;;;6.80;100.00;99552.97;4877812;29;20029;-89
2022/09/28 07:24:00;;;;;;;10.50;5.57;;;;;;;6.86;100.00;99566.03;4893779;29;20441;-89
2022/09/28 07:26:44;;;;;;;11.77;5.57;;;;;;;6.86;100.00;99564.19;4920480;29;20070;-89
2022/09/28 07:29:32;;;;;;;9.73;6.35;;;;;;;6.95;100.00;99568.03;4903172;29;20045;-89
2022/09/28 07:32:10;;;;;;;12.48;5.65;;;;;;;6.97;100.00;99565.19;4888527;29;20040;-89
2022/09/28 07:34:47;;;;;;;8.52;6.28;;;;;;;7.01;100.00;99567.53;4879438;29;20116;-89
2022/09/28 07:37:18;;;;;;;10.98;6.43;;;;;;;7.06;100.00;99573.44;4912102;29;20039;-88
2022/09/28 07:42:31;;;;;;;12.55;6.47;;;;;;;7.20;100.00;99585.88;4912212;29;20507;-88
2022/09/28 07:44:57;;;;;;;14.98;6.18;;;;;;;7.26;100.00;99589.94;4896810;29;20133;-89
2022/09/28 07:47:25;;;;;;;11.88;7.78;;;;;;;7.30;100.00;99578.75;4888836;29;20032;-88
2022/09/28 07:50:10;;;;;;;9.85;6.53;;;;;;;7.30;100.00;99580.59;4909613;29;20135;-88
2022/09/28 07:53:11;;;;;;;12.15;8.15;;;;;;;7.40;100.00;99587.84;4886034;29;20207;-89
2022/09/28 07:56:08;;;;;;;10.68;6.35;;;;;;;7.42;100.00;99579.63;4911059;29;20036;-88
2022/09/28 07:58:55;;;;;;;10.65;6.00;;;;;;;7.46;100.00;99580.22;4898244;29;20286;-88
2022/09/28 08:01:20;;;;;;;11.20;7.40;;;;;;;7.54;100.00;99575.06;4896505;29;20040;-88
2022/09/28 08:03:46;;;;;;;13.32;6.63;;;;;;;7.60;100.00;99586.28;4891784;29;20092;-89
2022/09/28 08:06:16;;;;;;;11.38;7.47;;;;;;;7.71;100.00;99588.13;4877961;29;20484;-89
2022/09/28 08:08:43;;;;;;;9.07;6.55;;;;;;;7.74;100.00;99587.88;4908986;29;20473;-87
2022/09/28 08:11:15;;;;;;;12.63;7.30;;;;;;;7.84;100.00;99596.09;4893564;29;20084;-87
2022/09/28 08:14:01;;;;;;;9.73;7.18;;;;;;;8.00;100.00;99601.13;4893960;29;20044;-89
2022/09/28 08:16:45;;;;;;;12.23;7.18;;;;;;;8.05;100.00;99597.03;4892547;29;20550;-89
2022/09/28 08:19:14;;;;;;;20.13;6.20;;;;;;;8.16;100.00;99605.16;4908723;29;20048;-89
2022/09/28 08:21:46;;;;;;;12.38;7.43;;;;;;;8.21;100.00;99595.78;4893767;29;20048;-88
2022/09/28 08:24:14;;;;;;;12.77;7.57;;;;;;;8.28;100.00;99597.00;4908885;29;20507;-88
2022/09/28 08:26:54;;;;;;;10.88;7.63;;;;;;;8.37;100.00;99601.69;4907552;29;20391;-89
2022/09/28 08:29:21;;;;;;;14.07;7.03;;;;;;;8.41;100.00;99606.72;4911138;29;20460;-88
2022/09/28 08:31:49;;;;;;;13.23;7.38;;;;;;;8.54;100.00;99616.56;4907325;29;20039;-89
2022/09/28 08:34:38;;;;;;;12.68;6.25;;;;;;;8.56;100.00;99606.44;4893304;29;20032;-89
2022/09/28 08:37:16;;;;;;;;;;;;;;;8.67;100.00;99625.34;4893460;29;20052;-87
2022/09/28 08:39:44;;;;;;;7.05;5.88;;;;;;;8.67;100.00;99611.78;4908181;29;19920;-88
2022/09/28 08:42:31;;;;;;;8.65;5.63;;;;;;;8.82;99.80;99623.22;4908157;29;20048;-88
2022/09/28 08:45:22;;;;;;;11.02;7.00;;;;;;;8.87;100.00;99620.97;4907799;29;20444;-87
2022/09/28 08:51:46;;;;;;;8.27;5.95;;;;;;;9.05;100.00;99626.69;4911460;29;20047;-89
2022/09/28 08:54:24;;;;;;;9.20;6.15;;;;;;;9.15;98.58;99628.47;4908180;29;20033;-89
2022/09/28 08:57:15;;;;;;;8.02;5.43;;;;;;;9.19;97.81;99623.66;4888957;29;20341;-88
2022/09/28 08:59:54;;;;;;;10.95;6.13;;;;;;;9.27;97.19;99642.81;4894714;29;20041;-88
2022/09/28 09:02:38;;;;;;;7.97;5.80;;;;;;;9.29;96.58;99645.41;4895043;29;20396;-88
2022/09/28 09:05:19;;;;;;;11.13;5.88;;;;;;;9.24;95.76;99640.38;4896482;29;20063;-89
2022/09/28 09:08:27;;;;;;;7.18;5.15;;;;;;;9.31;96.58;99647.00;4896141;29;20511;-88
2022/09/28 09:11:02;;;;;;;12.63;6.25;;;;;;;9.40;96.99;99653.47;4898303;29;20028;-88
2022/09/28 09:14:00;;;;;;;8.30;5.53;;;;;;;9.47;97.41;99648.41;4895755;29;20040;-88
2022/09/28 09:16:35;;;;;;;7.40;6.05;;;;;;;9.60;97.49;99654.44;4886375;29;20040;-88
2022/09/28 09:19:26;;;;;;;11.70;6.32;;;;;;;9.62;96.86;99639.75;4882147;29;20465;-89
2022/09/28 09:22:24;;;;;;;11.48;7.07;;;;;;;9.81;97.98;99655.28;4895691;29;20059;-88
2022/09/28 09:24:57;;;;;;;10.90;6.05;;;;;;;9.96;97.22;99647.63;4909732;29;20033;-89
2022/09/28 09:27:52;;;;;;;14.63;5.82;;;;;;;10.09;95.22;99655.56;4929849;29;20028;-87
2022/09/28 09:30:23;;;;;;;9.63;6.50;;;;;;;10.19;96.20;99661.88;4898014;29;20043;-88
2022/09/28 09:33:36;;;;;;;6.57;4.93;;;;;;;10.31;94.78;99659.97;4906166;29;20071;-88
2022/09/28 09:36:51;;;;;;;9.95;5.13;;;;;;;10.36;94.99;99658.53;4909135;29;20044;-87
2022/09/28 09:40:09;;;;;;;7.05;4.68;;;;;;;10.33;95.14;99653.38;4882216;29;20045;-88
2022/09/28 09:43:17;;;;;;;8.48;4.65;;;;;;;10.44;94.61;99669.59;4895825;29;20124;-88
2022/09/28 09:45:59;;;;;;;5.10;4.30;;;;;;;10.52;94.06;99659.84;4880393;29;20399;-88
2022/09/28 09:48:40;;;;;;;6.95;3.78;;;;;;;10.65;93.85;99671.34;4891299;29;20088;-87
2022/09/28 09:51:23;;;;;;;5.10;4.30;;;;;;;10.80;94.31;99655.44;4895619;29;20033;-88
2022/09/28 09:54:03;;;;;;;4.75;3.72;;;;;;;11.06;91.96;99662.06;4895254;29;20040;-88
2022/09/28 09:56:42;;;;;;;9.10;4.45;;;;;;;11.41;94.31;99666.03;4913481;29;20125;-88
2022/09/28 09:59:23;;;;;;;7.20;5.00;;;;;;;11.66;92.63;99661.84;4894742;29;20044;-87
2022/09/28 10:02:14;;;;;;;5.70;3.88;;;;;;;11.72;89.28;99653.94;4907828;29;20538;-88
2022/09/28 10:04:50;;;;;;;3.53;3.17;;;;;;;11.79;88.25;99662.34;4910975;29;20040;-88
2022/09/28 10:07:28;;;;;;;4.95;3.70;;;;;;;11.91;87.99;99674.84;4895138;29;20044;-87
2022/09/28 10:09:57;;;;;;;7.18;2.70;;;;;;;11.96;85.91;99671.66;4878813;29;20448;-88
2022/09/28 10:12:41;;;;;;;5.70;3.00;;;;;;;12.05;88.05;99665.31;4895415;29;20111;-88
2022/09/28 10:15:13;;;;;;;4.57;3.15;;;;;;;12.23;88.56;99658.06;4894493;29;20146;-88
2022/09/28 10:17:47;;;;;;;5.13;3.60;;;;;;;12.63;89.01;99654.09;4906663;29;20044;-87
2022/09/28 10:20:48;;;;;;;8.15;3.63;;;;;;;13.19;87.03;99663.00;4862613;29;20187;-88
2022/09/28 10:23:35;;;;;;;6.10;2.50;;;;;;;13.27;84.96;99644.84;4876900;29;20571;-88
2022/09/28 10:26:13;;;;;;;4.22;2.53;;;;;;;13.22;83.16;99652.66;4883321;29;20384;-88
2022/09/28 10:28:46;;;;;;;5.07;2.40;;;;;;;13.24;83.50;99667.03;4894380;29;20028;-87
2022/09/28 10:31:47;;;;;;;4.25;2.58;;;;;;;13.19;85.37;99658.41;4895386;29;20040;-87
2022/09/28 10:34:28;;;;;;;10.15;2.70;;;;;;;13.12;81.86;99656.47;4885647;29;20409;-87
2022/09/28 10:37:02;;;;;;;6.00;3.03;;;;;;;13.11;82.17;99669.28;4899817;29;20033;-87
2022/09/28 10:39:42;;;;;;;5.18;2.75;;;;;;;13.00;80.75;99667.63;4910287;29;20472;-88
2022/09/28 10:42:11;;;;;;;2.47;1.88;;;;;;;12.94;81.79;99670.13;4910140;29;20044;-87
2022/09/28 10:44:57;;;;;;;4.95;2.67;;;;;;;12.91;83.22;99654.91;4909700;29;20499;-88
2022/09/28 10:47:36;;;;;;;4.40;2.60;;;;;;;12.79;82.16;99655.31;4883728;29;20040;-88
2022/09/28 10:50:22;;;;;;;6.65;2.28;;;;;;;12.71;82.21;99659.66;4894324;29;20495;-87
2022/09/28 10:52:52;;;;;;;2.53;2.33;;;;;;;12.77;83.70;99655.44;4894745;29;20040;-89
2022/09/28 10:55:36;;;;;;;6.00;3.08;;;;;;;13.20;87.45;99660.16;4906511;29;20498;-88
2022/09/28 10:58:25;;;;;;;3.67;3.30;;;;;;;13.73;85.26;99658.34;4897158;29;20028;-87
2022/09/28 11:00:52;;;;;;;6.03;3.65;;;;;;;14.11;81.54;99653.44;4897180;29;20036;-87
2022/09/28 11:03:24;;;;;;;5.68;3.50;;;;;;;14.36;81.27;99641.59;4908006;29;20031;-88
2022/09/28 11:05:59;;;;;;;8.95;3.60;;;;;;;14.76;78.06;99664.69;4878580;29;20047;-87
2022/09/28 11:08:35;;;;;;;4.78;2.35;;;;;;;14.83;76.40;99659.38;4893951;29;20083;-87
2022/09/28 11:11:04;;;;;;;5.15;1.80;;;;;;;14.71;73.82;99651.50;4909958;29;20498;-87
2022/09/28 11:13:36;;;;;;;2.17;1.70;;;;;;;14.70;75.66;99646.19;4908717;29;20025;-88
2022/09/28 11:16:05;;;;;;;2.47;2.22;;;;;;;14.80;75.40;99664.19;4894725;29;20033;-86
2022/09/28 11:18:33;;;;;;;5.22;2.30;;;;;;;14.94;76.36;99650.84;4908542;29;20972;-88
2022/09/28 11:21:14;;;;;;;3.50;2.60;;;;;;;14.88;75.78;99657.88;4908445;29;20421;-87
2022/09/28 11:24:16;;;;;;;4.65;1.85;;;;;;;14.78;75.76;99659.88;4893747;29;20064;-87
2022/09/28 11:26:44;;;;;;;;;;;;;;;14.72;79.79;99657.81;4907513;29;20036;-87
2022/09/28 11:29:40;;;;;;;2.45;1.40;;;;;;;14.37;76.45;99654.25;4911784;29;19919;-87
2022/09/28 11:32:40;;;;;;;3.75;1.45;;;;;;;13.97;77.77;99649.44;4904111;29;20044;-87
2022/09/28 11:35:26;;;;;;;2.73;1.20;;;;;;;13.85;77.53;99653.47;4893792;29;20048;-87
2022/09/28 11:38:10;;;;;;;3.80;1.35;;;;;;;13.71;78.07;99661.25;4894519;29;20040;-87
2022/09/28 11:41:20;;;;;;;2.08;1.30;;;;;;;13.45;78.94;99660.38;4905751;29;20134;-88
2022/09/28 11:44:15;;;;;;;2.92;1.05;;;;;;;13.30;79.04;99661.97;4892790;29;20545;-87
2022/09/28 11:47:07;;;;;;;2.42;1.30;;;;;;;13.12;79.64;99660.06;4896719;29;20040;-87
2022/09/28 11:49:39;;;;;;;3.30;1.23;;;;;;;12.96;79.38;99658.03;4904818;29;20551;-88
2022/09/28 11:52:16;;;;;;;2.38;1.20;;;;;;;13.09;81.52;99648.59;4877818;29;20044;-87
2022/09/28 11:54:50;;;;;;;2.30;1.10;;;;;;;13.57;79.88;99650.91;4894251;29;20043;-87
2022/09/28 11:57:22;;;;;;;2.92;1.38;;;;;;;13.93;76.96;99657.09;4911860;29;20048;-88
2022/09/28 12:00:01;;;;;;;2.90;1.27;;;;;;;14.07;79.11;99647.44;4892604;29;20036;-87
2022/09/28 12:02:36;;;;;;;3.95;1.42;;;;;;;14.11;75.05;99646.09;4899842;29;20032;-87
2022/09/28 12:05:21;;;;;;;6.50;2.22;;;;;;;14.15;76.28;99642.00;4894637;29;20033;-87
2022/09/28 12:07:54;;;;;;;2.58;1.40;;;;;;;14.41;77.93;99644.72;4893268;29;20123;-87
2022/09/28 12:10:46;;;;;;;1.95;1.45;;;;;;;14.55;75.57;99645.97;4893817;29;20048;-86
2022/09/28 12:13:26;;;;;;;3.70;1.45;;;;;;;14.78;73.94;99637.97;4908194;29;20032;-87
2022/09/28 12:15:54;;;;;;;4.22;2.10;;;;;;;15.02;74.93;99654.47;4892955;29;20397;-86
2022/09/28 12:18:24;;;;;;;5.22;2.00;;;;;;;15.18;75.16;99650.88;4892308;29;20100;-86
2022/09/28 12:21:37;;;;;;;3.15;2.03;;;;;;;15.26;76.02;99645.41;4908675;29;20048;-87
2022/09/28 12:24:09;;;;;;;3.83;2.08;;;;;;;15.41;72.68;99647.47;4908838;29;20488;-86
2022/09/28 12:26:37;;;;;;;9.38;1.85;;;;;;;15.38;72.33;99653.28;4906190;29;20044;-87
2022/09/28 12:29:26;;;;;;;2.47;1.48;;;;;;;15.31;71.86;99653.13;4892049;29;20037;-86
2022/09/28 12:32:03;;;;;;;4.15;1.63;;;;;;;15.16;74.71;99663.91;4883082;29;20527;-88
2022/09/28 12:34:28;;;;;;;6.00;1.77;;;;;;;14.74;71.37;99670.34;4907951;29;20037;-87
2022/09/28 12:37:12;;;;;;;3.25;1.80;;;;;;;14.43;76.48;99666.41;4908763;29;20088;-89